sensor_id;sensor_type;location;lat;lon;timestamp;pressure;altitude;pressure_sealevel;temperature;humidity
74893;BME280;63446;56.272;43.922;2023-07-02T00:00:29;98830.78;;;18.21;67.77
74893;BME280;63446;56.272;43.922;2023-07-02T00:02:54;98830.66;;;18.14;68.05
74893;BME280;63446;56.272;43.922;2023-07-02T00:05:20;98828.66;;;18.07;68.09
74893;BME280;63446;56.272;43.922;2023-07-02T00:07:47;98823.19;;;18.00;68.29
74893;BME280;63446;56.272;43.922;2023-07-02T00:10:12;98828.47;;;17.96;68.40
74893;BME280;63446;56.272;43.922;2023-07-02T00:12:39;98828.41;;;17.93;68.27
74893;BME280;63446;56.272;43.922;2023-07-02T00:15:05;98833.31;;;17.91;68.51
74893;BME280;63446;56.272;43.922;2023-07-02T00:17:32;98829.81;;;17.87;68.38
74893;BME280;63446;56.272;43.922;2023-07-02T00:19:59;98827.50;;;17.85;68.45
74893;BME280;63446;56.272;43.922;2023-07-02T00:22:32;98828.97;;;17.83;68.77
74893;BME280;63446;56.272;43.922;2023-07-02T00:25:01;98831.22;;;17.80;68.61
74893;BME280;63446;56.272;43.922;2023-07-02T00:27:30;98841.16;;;17.80;68.70
74893;BME280;63446;56.272;43.922;2023-07-02T00:29:55;98832.69;;;17.78;68.63
74893;BME280;63446;56.272;43.922;2023-07-02T00:32:22;98834.25;;;17.79;68.94
74893;BME280;63446;56.272;43.922;2023-07-02T00:34:47;98832.00;;;17.81;68.97
74893;BME280;63446;56.272;43.922;2023-07-02T00:37:13;98829.41;;;17.85;69.08
74893;BME280;63446;56.272;43.922;2023-07-02T00:39:40;98829.88;;;17.90;68.80
74893;BME280;63446;56.272;43.922;2023-07-02T00:42:07;98825.78;;;17.96;69.02
74893;BME280;63446;56.272;43.922;2023-07-02T00:44:33;98826.38;;;18.09;69.04
74893;BME280;63446;56.272;43.922;2023-07-02T00:47:09;98830.38;;;18.19;68.91
74893;BME280;63446;56.272;43.922;2023-07-02T00:49:37;98827.47;;;18.27;68.81
74893;BME280;63446;56.272;43.922;2023-07-02T00:52:05;98827.59;;;18.35;68.25
74893;BME280;63446;56.272;43.922;2023-07-02T00:54:32;98838.47;;;18.45;68.14
74893;BME280;63446;56.272;43.922;2023-07-02T00:57:00;98845.88;;;18.55;68.11
74893;BME280;63446;56.272;43.922;2023-07-02T00:59:32;98837.25;;;18.66;67.63
74893;BME280;63446;56.272;43.922;2023-07-02T01:02:03;98842.03;;;18.76;67.41
74893;BME280;63446;56.272;43.922;2023-07-02T01:04:28;98846.75;;;18.86;67.30
74893;BME280;63446;56.272;43.922;2023-07-02T01:06:57;98840.78;;;18.96;67.05
74893;BME280;63446;56.272;43.922;2023-07-02T01:09:24;98849.31;;;19.06;66.41
74893;BME280;63446;56.272;43.922;2023-07-02T01:11:54;98849.06;;;19.14;66.42
74893;BME280;63446;56.272;43.922;2023-07-02T01:14:27;98856.06;;;19.22;66.08
74893;BME280;63446;56.272;43.922;2023-07-02T01:16:55;98856.19;;;19.33;65.67
74893;BME280;63446;56.272;43.922;2023-07-02T01:19:51;98852.88;;;19.43;65.54
74893;BME280;63446;56.272;43.922;2023-07-02T01:22:21;98861.09;;;19.58;65.16
74893;BME280;63446;56.272;43.922;2023-07-02T01:24:48;98858.97;;;19.70;64.88
74893;BME280;63446;56.272;43.922;2023-07-02T01:27:16;98856.09;;;19.90;64.36
74893;BME280;63446;56.272;43.922;2023-07-02T01:29:42;98861.00;;;20.18;63.77
74893;BME280;63446;56.272;43.922;2023-07-02T01:32:10;98862.84;;;21.10;61.68
74893;BME280;63446;56.272;43.922;2023-07-02T01:34:36;98859.84;;;22.20;59.09
74893;BME280;63446;56.272;43.922;2023-07-02T01:37:03;98862.03;;;23.39;55.99
74893;BME280;63446;56.272;43.922;2023-07-02T01:39:30;98867.13;;;24.59;53.16
74893;BME280;63446;56.272;43.922;2023-07-02T01:42:11;98866.25;;;25.83;50.61
74893;BME280;63446;56.272;43.922;2023-07-02T01:44:38;98864.03;;;26.99;47.85
74893;BME280;63446;56.272;43.922;2023-07-02T01:47:05;98874.31;;;27.67;46.10
74893;BME280;63446;56.272;43.922;2023-07-02T01:49:31;98874.78;;;28.51;44.32
74893;BME280;63446;56.272;43.922;2023-07-02T01:51:58;98870.06;;;29.30;42.66
74893;BME280;63446;56.272;43.922;2023-07-02T01:54:26;98879.97;;;30.04;41.15
74893;BME280;63446;56.272;43.922;2023-07-02T01:56:53;98869.50;;;30.88;39.41
74893;BME280;63446;56.272;43.922;2023-07-02T01:59:19;98870.34;;;31.73;37.78
74893;BME280;63446;56.272;43.922;2023-07-02T02:01:45;98868.06;;;32.52;36.70
74893;BME280;63446;56.272;43.922;2023-07-02T02:04:11;98872.44;;;33.32;34.95
74893;BME280;63446;56.272;43.922;2023-07-02T02:06:39;98864.91;;;34.12;33.50
74893;BME280;63446;56.272;43.922;2023-07-02T02:09:05;98872.47;;;34.89;32.37
74893;BME280;63446;56.272;43.922;2023-07-02T02:11:32;98872.81;;;35.65;31.15
74893;BME280;63446;56.272;43.922;2023-07-02T02:13:58;98866.38;;;36.38;30.12
74893;BME280;63446;56.272;43.922;2023-07-02T02:16:27;98871.47;;;37.12;29.01
74893;BME280;63446;56.272;43.922;2023-07-02T02:18:55;98872.28;;;37.82;28.33
74893;BME280;63446;56.272;43.922;2023-07-02T02:21:21;98874.94;;;38.45;27.66
74893;BME280;63446;56.272;43.922;2023-07-02T02:23:48;98880.38;;;39.05;26.77
74893;BME280;63446;56.272;43.922;2023-07-02T02:26:14;98879.94;;;39.57;25.91
74893;BME280;63446;56.272;43.922;2023-07-02T02:28:41;98868.06;;;40.07;25.42
74893;BME280;63446;56.272;43.922;2023-07-02T02:31:08;98875.69;;;40.59;24.55
74893;BME280;63446;56.272;43.922;2023-07-02T02:33:35;98872.38;;;41.13;23.98
74893;BME280;63446;56.272;43.922;2023-07-02T02:36:02;98865.91;;;41.65;23.38
74893;BME280;63446;56.272;43.922;2023-07-02T02:38:29;98874.91;;;42.20;22.92
74893;BME280;63446;56.272;43.922;2023-07-02T02:40:55;98874.84;;;42.70;22.37
74893;BME280;63446;56.272;43.922;2023-07-02T02:43:21;98881.56;;;43.12;21.57
74893;BME280;63446;56.272;43.922;2023-07-02T02:45:49;98880.50;;;43.47;21.39
74893;BME280;63446;56.272;43.922;2023-07-02T02:48:15;98878.19;;;43.78;20.78
74893;BME280;63446;56.272;43.922;2023-07-02T02:50:41;98873.28;;;44.10;20.61
74893;BME280;63446;56.272;43.922;2023-07-02T02:53:10;98876.69;;;44.43;20.03
74893;BME280;63446;56.272;43.922;2023-07-02T02:55:36;98876.53;;;44.75;20.03
74893;BME280;63446;56.272;43.922;2023-07-02T02:58:04;98877.59;;;45.06;19.82
74893;BME280;63446;56.272;43.922;2023-07-02T03:00:30;98882.34;;;45.40;19.10
74893;BME280;63446;56.272;43.922;2023-07-02T03:02:56;98873.09;;;45.74;18.84
74893;BME280;63446;56.272;43.922;2023-07-02T03:05:23;98875.22;;;46.10;18.79
74893;BME280;63446;56.272;43.922;2023-07-02T03:07:51;98873.88;;;46.47;18.59
74893;BME280;63446;56.272;43.922;2023-07-02T03:10:17;98875.31;;;46.92;18.27
74893;BME280;63446;56.272;43.922;2023-07-02T03:12:45;98870.16;;;47.34;17.58
74893;BME280;63446;56.272;43.922;2023-07-02T03:15:11;98878.72;;;47.82;17.13
74893;BME280;63446;56.272;43.922;2023-07-02T03:17:37;98864.59;;;48.28;17.00
74893;BME280;63446;56.272;43.922;2023-07-02T03:20:04;98859.66;;;48.77;16.31
74893;BME280;63446;56.272;43.922;2023-07-02T03:22:32;98851.84;;;49.25;16.16
74893;BME280;63446;56.272;43.922;2023-07-02T03:24:58;98854.56;;;49.75;15.65
74893;BME280;63446;56.272;43.922;2023-07-02T03:27:24;98855.84;;;50.26;15.21
74893;BME280;63446;56.272;43.922;2023-07-02T03:29:51;98857.44;;;50.74;14.60
74893;BME280;63446;56.272;43.922;2023-07-02T03:32:17;98862.06;;;51.16;14.83
74893;BME280;63446;56.272;43.922;2023-07-02T03:34:43;98858.59;;;51.54;14.63
74893;BME280;63446;56.272;43.922;2023-07-02T03:37:09;98844.09;;;51.96;14.43
74893;BME280;63446;56.272;43.922;2023-07-02T03:39:35;98851.59;;;52.42;13.63
74893;BME280;63446;56.272;43.922;2023-07-02T03:42:01;98848.34;;;52.87;13.64
74893;BME280;63446;56.272;43.922;2023-07-02T03:44:27;98859.72;;;53.30;12.87
74893;BME280;63446;56.272;43.922;2023-07-02T03:46:52;98859.44;;;53.69;12.45
74893;BME280;63446;56.272;43.922;2023-07-02T03:49:18;98854.66;;;54.04;12.49
74893;BME280;63446;56.272;43.922;2023-07-02T03:51:44;98861.78;;;54.38;12.59
74893;BME280;63446;56.272;43.922;2023-07-02T03:54:10;98865.41;;;54.74;12.49
74893;BME280;63446;56.272;43.922;2023-07-02T03:56:36;98866.72;;;55.08;12.00
74893;BME280;63446;56.272;43.922;2023-07-02T03:59:02;98856.69;;;55.43;11.63
74893;BME280;63446;56.272;43.922;2023-07-02T04:01:28;98852.06;;;55.73;11.44
74893;BME280;63446;56.272;43.922;2023-07-02T04:03:56;98852.53;;;56.07;11.17
74893;BME280;63446;56.272;43.922;2023-07-02T04:06:21;98852.94;;;56.40;11.06
74893;BME280;63446;56.272;43.922;2023-07-02T04:08:48;98847.31;;;56.68;10.83
74893;BME280;63446;56.272;43.922;2023-07-02T04:11:14;98852.28;;;56.95;10.66
74893;BME280;63446;56.272;43.922;2023-07-02T04:13:40;98843.09;;;57.24;10.76
74893;BME280;63446;56.272;43.922;2023-07-02T04:16:07;98851.59;;;57.52;10.37
74893;BME280;63446;56.272;43.922;2023-07-02T04:18:33;98850.84;;;57.81;10.42
74893;BME280;63446;56.272;43.922;2023-07-02T04:20:59;98850.09;;;58.10;10.28
74893;BME280;63446;56.272;43.922;2023-07-02T04:23:25;98848.66;;;58.40;10.20
74893;BME280;63446;56.272;43.922;2023-07-02T04:25:51;98852.88;;;58.71;9.98
74893;BME280;63446;56.272;43.922;2023-07-02T04:28:17;98850.63;;;59.01;9.72
74893;BME280;63446;56.272;43.922;2023-07-02T04:30:45;98838.81;;;59.25;9.67
74893;BME280;63446;56.272;43.922;2023-07-02T04:33:12;98827.59;;;59.47;9.33
74893;BME280;63446;56.272;43.922;2023-07-02T04:35:40;98825.63;;;59.69;9.35
74893;BME280;63446;56.272;43.922;2023-07-02T04:38:06;98823.59;;;59.90;9.02
74893;BME280;63446;56.272;43.922;2023-07-02T04:40:33;98822.84;;;60.07;8.72
74893;BME280;63446;56.272;43.922;2023-07-02T04:42:59;98825.41;;;60.19;8.95
74893;BME280;63446;56.272;43.922;2023-07-02T04:45:26;98815.00;;;60.27;8.77
74893;BME280;63446;56.272;43.922;2023-07-02T04:47:52;98810.53;;;60.40;8.75
74893;BME280;63446;56.272;43.922;2023-07-02T04:50:18;98806.09;;;60.57;8.82
74893;BME280;63446;56.272;43.922;2023-07-02T04:52:44;98807.28;;;60.70;8.51
74893;BME280;63446;56.272;43.922;2023-07-02T04:55:10;98808.44;;;60.83;8.30
74893;BME280;63446;56.272;43.922;2023-07-02T04:57:37;98804.22;;;60.86;8.61
74893;BME280;63446;56.272;43.922;2023-07-02T05:00:03;98801.47;;;60.88;8.45
74893;BME280;63446;56.272;43.922;2023-07-02T05:02:32;98796.00;;;60.94;8.52
74893;BME280;63446;56.272;43.922;2023-07-02T05:04:58;98797.44;;;60.95;8.70
74893;BME280;63446;56.272;43.922;2023-07-02T05:07:24;98788.06;;;60.92;8.40
74893;BME280;63446;56.272;43.922;2023-07-02T05:09:50;98783.16;;;60.95;8.67
74893;BME280;63446;56.272;43.922;2023-07-02T05:12:18;98783.97;;;60.97;8.53
74893;BME280;63446;56.272;43.922;2023-07-02T05:14:44;98786.75;;;60.95;8.49
74893;BME280;63446;56.272;43.922;2023-07-02T05:17:10;98785.88;;;60.91;8.85
74893;BME280;63446;56.272;43.922;2023-07-02T05:19:36;98788.03;;;60.90;8.80
74893;BME280;63446;56.272;43.922;2023-07-02T05:22:03;98792.38;;;60.93;8.69
74893;BME280;63446;56.272;43.922;2023-07-02T05:24:29;98784.69;;;60.98;8.72
74893;BME280;63446;56.272;43.922;2023-07-02T05:26:54;98780.56;;;61.03;8.28
74893;BME280;63446;56.272;43.922;2023-07-02T05:29:20;98785.00;;;61.08;8.23
74893;BME280;63446;56.272;43.922;2023-07-02T05:31:46;98773.66;;;61.10;8.61
74893;BME280;63446;56.272;43.922;2023-07-02T05:34:12;98780.91;;;61.13;8.50
74893;BME280;63446;56.272;43.922;2023-07-02T05:36:38;98775.19;;;61.13;8.57
74893;BME280;63446;56.272;43.922;2023-07-02T05:39:04;98768.00;;;61.12;8.68
74893;BME280;63446;56.272;43.922;2023-07-02T05:41:30;98768.81;;;61.15;8.49
74893;BME280;63446;56.272;43.922;2023-07-02T05:43:57;98763.97;;;61.19;8.33
74893;BME280;63446;56.272;43.922;2023-07-02T05:46:24;98758.38;;;61.23;8.27
74893;BME280;63446;56.272;43.922;2023-07-02T05:48:49;98753.47;;;61.26;8.12
74893;BME280;63446;56.272;43.922;2023-07-02T05:51:23;98754.94;;;61.27;8.33
74893;BME280;63446;56.272;43.922;2023-07-02T05:53:50;98758.50;;;61.27;8.56
74893;BME280;63446;56.272;43.922;2023-07-02T05:56:17;98762.06;;;61.26;8.21
74893;BME280;63446;56.272;43.922;2023-07-02T05:58:45;98760.41;;;61.19;8.43
74893;BME280;63446;56.272;43.922;2023-07-02T06:01:13;98755.25;;;61.15;8.49
74893;BME280;63446;56.272;43.922;2023-07-02T06:03:39;98761.19;;;61.21;8.49
74893;BME280;63446;56.272;43.922;2023-07-02T06:06:05;98760.00;;;61.28;8.24
74893;BME280;63446;56.272;43.922;2023-07-02T06:08:31;98770.22;;;61.36;8.37
74893;BME280;63446;56.272;43.922;2023-07-02T06:10:56;98764.63;;;61.40;8.18
74893;BME280;63446;56.272;43.922;2023-07-02T06:13:22;98766.81;;;61.41;7.98
74893;BME280;63446;56.272;43.922;2023-07-02T06:15:48;98765.72;;;61.28;8.47
74893;BME280;63446;56.272;43.922;2023-07-02T06:18:14;98758.09;;;60.71;8.46
74893;BME280;63446;56.272;43.922;2023-07-02T06:20:40;98751.56;;;59.16;9.30
74893;BME280;63446;56.272;43.922;2023-07-02T06:23:06;98752.16;;;57.22;10.10
74893;BME280;63446;56.272;43.922;2023-07-02T06:25:31;98744.03;;;55.16;11.40
74893;BME280;63446;56.272;43.922;2023-07-02T06:27:58;98742.91;;;53.13;12.39
74893;BME280;63446;56.272;43.922;2023-07-02T06:30:25;98737.13;;;51.28;13.46
74893;BME280;63446;56.272;43.922;2023-07-02T06:32:51;98724.69;;;49.57;14.96
74893;BME280;63446;56.272;43.922;2023-07-02T06:35:17;98739.03;;;48.02;16.03
74893;BME280;63446;56.272;43.922;2023-07-02T06:37:43;98743.78;;;46.67;17.09
74893;BME280;63446;56.272;43.922;2023-07-02T06:40:09;98742.75;;;45.46;18.27
74893;BME280;63446;56.272;43.922;2023-07-02T06:42:36;98744.66;;;44.39;19.49
74893;BME280;63446;56.272;43.922;2023-07-02T06:45:02;98756.19;;;43.42;20.08
74893;BME280;63446;56.272;43.922;2023-07-02T06:47:32;98753.38;;;42.51;21.17
74893;BME280;63446;56.272;43.922;2023-07-02T06:49:58;98754.16;;;41.70;21.76
74893;BME280;63446;56.272;43.922;2023-07-02T06:52:25;98762.66;;;40.99;22.87
74893;BME280;63446;56.272;43.922;2023-07-02T06:54:51;98751.25;;;40.37;23.91
74893;BME280;63446;56.272;43.922;2023-07-02T06:57:18;98753.72;;;39.82;24.28
74893;BME280;63446;56.272;43.922;2023-07-02T06:59:43;98748.56;;;39.28;24.18
74893;BME280;63446;56.272;43.922;2023-07-02T07:02:09;98759.59;;;38.77;24.76
74893;BME280;63446;56.272;43.922;2023-07-02T07:04:35;98757.72;;;38.29;25.85
74893;BME280;63446;56.272;43.922;2023-07-02T07:07:01;98761.31;;;37.87;26.47
74893;BME280;63446;56.272;43.922;2023-07-02T07:09:30;98763.09;;;37.47;26.55
74893;BME280;63446;56.272;43.922;2023-07-02T07:11:57;98764.81;;;37.13;27.36
74893;BME280;63446;56.272;43.922;2023-07-02T07:14:23;98767.06;;;36.83;27.95
74893;BME280;63446;56.272;43.922;2023-07-02T07:16:50;98763.56;;;36.56;28.32
74893;BME280;63446;56.272;43.922;2023-07-02T07:19:16;98773.81;;;36.35;28.54
74893;BME280;63446;56.272;43.922;2023-07-02T07:21:43;98764.34;;;36.16;29.04
74893;BME280;63446;56.272;43.922;2023-07-02T07:24:10;98769.06;;;35.95;28.65
74893;BME280;63446;56.272;43.922;2023-07-02T07:26:36;98774.53;;;35.75;27.87
74893;BME280;63446;56.272;43.922;2023-07-02T07:29:04;98767.69;;;35.50;28.31
74893;BME280;63446;56.272;43.922;2023-07-02T07:31:30;98775.09;;;35.29;28.37
74893;BME280;63446;56.272;43.922;2023-07-02T07:33:56;98770.84;;;35.13;29.56
74893;BME280;63446;56.272;43.922;2023-07-02T07:36:22;98767.44;;;35.03;29.44
74893;BME280;63446;56.272;43.922;2023-07-02T07:38:48;98778.78;;;34.96;29.37
74893;BME280;63446;56.272;43.922;2023-07-02T07:41:13;98772.25;;;34.93;29.78
74893;BME280;63446;56.272;43.922;2023-07-02T07:43:39;98770.91;;;34.89;29.89
74893;BME280;63446;56.272;43.922;2023-07-02T07:46:05;98766.84;;;34.84;30.56
74893;BME280;63446;56.272;43.922;2023-07-02T07:48:31;98770.72;;;34.78;30.35
74893;BME280;63446;56.272;43.922;2023-07-02T07:50:57;98775.06;;;34.69;30.62
74893;BME280;63446;56.272;43.922;2023-07-02T07:53:22;98770.72;;;34.63;30.47
74893;BME280;63446;56.272;43.922;2023-07-02T07:55:48;98766.81;;;34.55;30.38
74893;BME280;63446;56.272;43.922;2023-07-02T07:58:14;98764.75;;;34.49;30.24
74893;BME280;63446;56.272;43.922;2023-07-02T08:00:41;98777.84;;;34.45;30.24
74893;BME280;63446;56.272;43.922;2023-07-02T08:03:06;98767.06;;;34.42;30.19
74893;BME280;63446;56.272;43.922;2023-07-02T08:05:33;98761.75;;;34.38;30.42
74893;BME280;63446;56.272;43.922;2023-07-02T08:07:58;98764.84;;;34.31;30.25
74893;BME280;63446;56.272;43.922;2023-07-02T08:10:25;98763.81;;;34.29;30.86
74893;BME280;63446;56.272;43.922;2023-07-02T08:12:53;98764.00;;;34.25;30.83
74893;BME280;63446;56.272;43.922;2023-07-02T08:15:19;98761.44;;;34.21;30.69
74893;BME280;63446;56.272;43.922;2023-07-02T08:17:44;98755.84;;;34.16;30.60
74893;BME280;63446;56.272;43.922;2023-07-02T08:20:11;98766.69;;;34.10;31.09
74893;BME280;63446;56.272;43.922;2023-07-02T08:22:38;98765.06;;;34.04;31.28
74893;BME280;63446;56.272;43.922;2023-07-02T08:25:05;98759.28;;;34.01;31.12
74893;BME280;63446;56.272;43.922;2023-07-02T08:27:32;98757.91;;;34.06;31.49
74893;BME280;63446;56.272;43.922;2023-07-02T08:29:57;98759.81;;;34.15;31.63
74893;BME280;63446;56.272;43.922;2023-07-02T08:32:23;98763.03;;;34.28;31.59
74893;BME280;63446;56.272;43.922;2023-07-02T08:34:50;98754.59;;;34.41;30.96
74893;BME280;63446;56.272;43.922;2023-07-02T08:37:17;98754.03;;;34.52;30.26
74893;BME280;63446;56.272;43.922;2023-07-02T08:39:44;98752.47;;;34.60;30.25
74893;BME280;63446;56.272;43.922;2023-07-02T08:42:11;98757.09;;;34.68;30.16
74893;BME280;63446;56.272;43.922;2023-07-02T08:44:37;98757.38;;;34.70;30.53
74893;BME280;63446;56.272;43.922;2023-07-02T08:47:03;98758.72;;;34.75;29.85
74893;BME280;63446;56.272;43.922;2023-07-02T08:49:31;98748.41;;;34.85;29.77
74893;BME280;63446;56.272;43.922;2023-07-02T08:51:57;98751.19;;;35.00;30.21
74893;BME280;63446;56.272;43.922;2023-07-02T08:54:23;98759.09;;;35.12;29.50
74893;BME280;63446;56.272;43.922;2023-07-02T08:56:49;98753.44;;;35.16;29.14
74893;BME280;63446;56.272;43.922;2023-07-02T08:59:15;98752.19;;;35.17;29.07
74893;BME280;63446;56.272;43.922;2023-07-02T09:01:53;98757.03;;;35.22;29.54
74893;BME280;63446;56.272;43.922;2023-07-02T09:04:22;98760.22;;;35.20;29.48
74893;BME280;63446;56.272;43.922;2023-07-02T09:07:09;98754.09;;;35.11;29.43
74893;BME280;63446;56.272;43.922;2023-07-02T09:09:46;98752.56;;;34.95;29.75
74893;BME280;63446;56.272;43.922;2023-07-02T09:12:29;98749.72;;;34.74;30.22
74893;BME280;63446;56.272;43.922;2023-07-02T09:15:14;98751.69;;;34.59;30.07
74893;BME280;63446;56.272;43.922;2023-07-02T09:17:40;98759.09;;;34.44;30.65
74893;BME280;63446;56.272;43.922;2023-07-02T09:20:06;98752.97;;;34.34;31.18
74893;BME280;63446;56.272;43.922;2023-07-02T09:22:34;98748.31;;;34.25;31.24
74893;BME280;63446;56.272;43.922;2023-07-02T09:25:02;98749.44;;;34.19;31.19
74893;BME280;63446;56.272;43.922;2023-07-02T09:27:38;98748.53;;;34.13;31.59
74893;BME280;63446;56.272;43.922;2023-07-02T09:30:12;98760.16;;;34.08;32.47
74893;BME280;63446;56.272;43.922;2023-07-02T09:32:40;98760.06;;;34.02;31.90
74893;BME280;63446;56.272;43.922;2023-07-02T09:35:06;98765.38;;;33.96;32.58
74893;BME280;63446;56.272;43.922;2023-07-02T09:37:33;98764.97;;;33.89;33.07
74893;BME280;63446;56.272;43.922;2023-07-02T09:39:59;98770.19;;;33.87;33.05
74893;BME280;63446;56.272;43.922;2023-07-02T09:42:28;98769.34;;;33.95;33.66
74893;BME280;63446;56.272;43.922;2023-07-02T09:44:58;98775.16;;;34.21;33.31
74893;BME280;63446;56.272;43.922;2023-07-02T09:47:24;98774.19;;;34.48;32.30
74893;BME280;63446;56.272;43.922;2023-07-02T09:49:58;98782.09;;;34.85;31.01
74893;BME280;63446;56.272;43.922;2023-07-02T09:52:26;98778.69;;;35.20;30.30
74893;BME280;63446;56.272;43.922;2023-07-02T09:54:53;98780.84;;;35.45;29.37
74893;BME280;63446;56.272;43.922;2023-07-02T09:57:18;98771.66;;;35.63;28.64
74893;BME280;63446;56.272;43.922;2023-07-02T09:59:45;98773.50;;;35.72;28.33
74893;BME280;63446;56.272;43.922;2023-07-02T10:02:12;98761.41;;;35.64;29.30
74893;BME280;63446;56.272;43.922;2023-07-02T10:04:47;98754.22;;;35.52;29.73
74893;BME280;63446;56.272;43.922;2023-07-02T10:07:27;98767.69;;;35.35;29.99
74893;BME280;63446;56.272;43.922;2023-07-02T10:09:54;98771.31;;;35.26;30.06
74893;BME280;63446;56.272;43.922;2023-07-02T10:14:46;98779.44;;;35.20;31.13
74893;BME280;63446;56.272;43.922;2023-07-02T10:17:28;98768.28;;;35.24;31.44
74893;BME280;63446;56.272;43.922;2023-07-02T10:20:00;98761.63;;;35.31;31.66
74893;BME280;63446;56.272;43.922;2023-07-02T10:22:27;98771.00;;;35.39;31.37
74893;BME280;63446;56.272;43.922;2023-07-02T10:24:55;98763.13;;;35.46;31.29
74893;BME280;63446;56.272;43.922;2023-07-02T10:27:43;98762.19;;;35.50;31.35
74893;BME280;63446;56.272;43.922;2023-07-02T10:30:09;98762.38;;;35.46;31.48
74893;BME280;63446;56.272;43.922;2023-07-02T10:32:37;98766.75;;;35.53;31.44
74893;BME280;63446;56.272;43.922;2023-07-02T10:35:16;98776.19;;;35.52;31.01
74893;BME280;63446;56.272;43.922;2023-07-02T10:37:43;98781.97;;;35.54;30.52
74893;BME280;63446;56.272;43.922;2023-07-02T10:40:10;98783.38;;;35.64;30.43
74893;BME280;63446;56.272;43.922;2023-07-02T10:45:13;98786.25;;;35.55;30.61
74893;BME280;63446;56.272;43.922;2023-07-02T10:47:40;98793.28;;;35.26;30.96
74893;BME280;63446;56.272;43.922;2023-07-02T10:50:17;98794.19;;;34.93;31.26
74893;BME280;63446;56.272;43.922;2023-07-02T10:52:43;98796.63;;;34.62;32.05
74893;BME280;63446;56.272;43.922;2023-07-02T10:55:09;98804.34;;;34.24;33.02
74893;BME280;63446;56.272;43.922;2023-07-02T10:57:35;98794.41;;;33.79;33.94
74893;BME280;63446;56.272;43.922;2023-07-02T11:00:05;98806.41;;;33.39;34.34
74893;BME280;63446;56.272;43.922;2023-07-02T11:02:37;98813.50;;;33.03;34.70
74893;BME280;63446;56.272;43.922;2023-07-02T11:05:07;98795.59;;;32.66;35.33
74893;BME280;63446;56.272;43.922;2023-07-02T11:07:39;98795.56;;;32.29;35.93
74893;BME280;63446;56.272;43.922;2023-07-02T11:10:06;98806.44;;;32.01;36.35
74893;BME280;63446;56.272;43.922;2023-07-02T11:12:32;98797.09;;;31.80;36.96
74893;BME280;63446;56.272;43.922;2023-07-02T11:15:35;98796.75;;;31.60;37.50
74893;BME280;63446;56.272;43.922;2023-07-02T11:18:09;98794.69;;;31.42;37.85
74893;BME280;63446;56.272;43.922;2023-07-02T11:20:35;98798.78;;;31.25;38.14
74893;BME280;63446;56.272;43.922;2023-07-02T11:23:01;98808.88;;;31.06;38.35
74893;BME280;63446;56.272;43.922;2023-07-02T11:25:27;98817.81;;;30.84;39.35
74893;BME280;63446;56.272;43.922;2023-07-02T11:28:06;98830.56;;;30.53;41.34
74893;BME280;63446;56.272;43.922;2023-07-02T11:30:33;98845.56;;;30.23;42.83
74893;BME280;63446;56.272;43.922;2023-07-02T11:33:01;98868.09;;;29.85;45.30
74893;BME280;63446;56.272;43.922;2023-07-02T11:35:35;98858.75;;;29.44;48.83
74893;BME280;63446;56.272;43.922;2023-07-02T11:38:02;98863.88;;;29.00;50.07
74893;BME280;63446;56.272;43.922;2023-07-02T11:40:28;98866.56;;;28.55;51.95
74893;BME280;63446;56.272;43.922;2023-07-02T11:42:54;98853.06;;;28.18;52.98
74893;BME280;63446;56.272;43.922;2023-07-02T11:45:20;98847.09;;;27.91;54.28
74893;BME280;63446;56.272;43.922;2023-07-02T11:47:46;98842.09;;;27.69;54.18
74893;BME280;63446;56.272;43.922;2023-07-02T11:50:12;98852.16;;;27.53;52.08
74893;BME280;63446;56.272;43.922;2023-07-02T11:52:38;98860.59;;;27.38;51.88
74893;BME280;63446;56.272;43.922;2023-07-02T11:55:04;98882.09;;;27.29;51.60
74893;BME280;63446;56.272;43.922;2023-07-02T11:57:30;98893.81;;;27.22;51.61
74893;BME280;63446;56.272;43.922;2023-07-02T11:59:56;98889.66;;;27.18;51.40
74893;BME280;63446;56.272;43.922;2023-07-02T12:02:22;98899.72;;;27.17;51.14
74893;BME280;63446;56.272;43.922;2023-07-02T12:04:48;98912.44;;;27.20;50.89
74893;BME280;63446;56.272;43.922;2023-07-02T12:07:14;98922.47;;;27.23;50.45
74893;BME280;63446;56.272;43.922;2023-07-02T12:09:40;98927.06;;;27.26;50.38
74893;BME280;63446;56.272;43.922;2023-07-02T12:12:07;98927.00;;;27.30;50.68
74893;BME280;63446;56.272;43.922;2023-07-02T12:14:34;98924.63;;;27.32;51.21
74893;BME280;63446;56.272;43.922;2023-07-02T12:17:00;98912.94;;;27.35;52.36
74893;BME280;63446;56.272;43.922;2023-07-02T12:19:26;98908.97;;;27.40;52.94
74893;BME280;63446;56.272;43.922;2023-07-02T12:21:52;98908.72;;;27.54;52.36
74893;BME280;63446;56.272;43.922;2023-07-02T12:24:18;98905.53;;;27.79;52.64
74893;BME280;63446;56.272;43.922;2023-07-02T12:26:44;98917.97;;;28.13;52.08
74893;BME280;63446;56.272;43.922;2023-07-02T12:29:10;98917.00;;;28.56;50.30
74893;BME280;63446;56.272;43.922;2023-07-02T12:31:36;98919.59;;;28.92;48.09
74893;BME280;63446;56.272;43.922;2023-07-02T12:34:02;98931.72;;;29.20;47.46
74893;BME280;63446;56.272;43.922;2023-07-02T12:36:28;98936.16;;;29.43;46.92
74893;BME280;63446;56.272;43.922;2023-07-02T12:38:54;98943.09;;;29.60;46.78
74893;BME280;63446;56.272;43.922;2023-07-02T12:41:20;98957.59;;;29.70;45.82
74893;BME280;63446;56.272;43.922;2023-07-02T12:43:46;98951.28;;;29.73;45.12
74893;BME280;63446;56.272;43.922;2023-07-02T12:46:12;98954.34;;;29.75;44.71
74893;BME280;63446;56.272;43.922;2023-07-02T12:48:38;98948.38;;;29.80;44.36
74893;BME280;63446;56.272;43.922;2023-07-02T12:51:04;98945.19;;;29.82;43.88
74893;BME280;63446;56.272;43.922;2023-07-02T12:53:29;98948.56;;;29.86;43.77
74893;BME280;63446;56.272;43.922;2023-07-02T12:55:55;98945.22;;;29.95;44.09
74893;BME280;63446;56.272;43.922;2023-07-02T12:58:21;98946.00;;;30.08;43.96